Time;durP1;ratioP1;P1;durP2;ratioP2;P2;SDS_P1;SDS_P2;PMS_P1;PMS_P2;Temp;Humidity;BMP_temperature;BMP_pressure;BME280_temperature;BME280_humidity;BME280_pressure;Samples;Min_cycle;Max_cycle;Signal;HPM_P1;HPM_P2
2023/01/18 00:01:55;;;;;;;10.90;5.90;;;;;;;;;;5049660;28;20774;-60
2023/01/18 00:04:22;;;;;;;13.73;6.70;;;;;;;;;;5049994;28;21013;-60
2023/01/18 00:06:48;;;;;;;13.93;6.53;;;;;;;;;;5050065;28;20283;-60
2023/01/18 00:09:14;;;;;;;11.17;6.60;;;;;;;;;;5066078;28;20703;-60
2023/01/18 00:11:40;;;;;;;11.20;7.03;;;;;;;;;;5070019;28;20350;-60
2023/01/18 00:14:06;;;;;;;15.17;6.43;;;;;;;;;;5054035;28;20287;-60
2023/01/18 00:16:32;;;;;;;11.30;7.10;;;;;;;;;;5049717;28;20284;-60
2023/01/18 00:18:59;;;;;;;11.83;7.27;;;;;;;;;;5049457;28;20777;-60
2023/01/18 00:21:26;;;;;;;12.20;6.70;;;;;;;;;;5052894;28;20290;-60
2023/01/18 00:23:53;;;;;;;14.57;6.83;;;;;;;;;;5062019;28;20662;-60
2023/01/18 00:26:19;;;;;;;11.67;7.33;;;;;;;;;;5049255;28;20370;-60
2023/01/18 00:28:45;;;;;;;12.37;6.77;;;;;;;;;;5049354;28;20283;-60
2023/01/18 00:31:12;;;;;;;13.83;6.87;;;;;;;;;;5049704;28;20453;-60
2023/01/18 00:33:38;;;;;;;13.33;7.23;;;;;;;;;;5049277;28;20287;-60
2023/01/18 00:36:05;;;;;;;11.60;7.63;;;;;;;;;;5054314;28;20306;-60
2023/01/18 00:38:31;;;;;;;17.87;8.23;;;;;;;;;;5069437;28;20279;-60
2023/01/18 00:40:57;;;;;;;15.00;7.50;;;;;;;;;;5068796;28;20776;-60
2023/01/18 00:43:38;;;;;;;12.50;7.07;;;;;;;;;;5069331;28;20358;-60
2023/01/18 00:46:05;;;;;;;17.47;8.60;;;;;;;;;;5068882;28;20290;-60
2023/01/18 00:48:31;;;;;;;11.17;6.87;;;;;;;;;;5050767;28;20303;-60
2023/01/18 00:50:57;;;;;;;15.77;8.47;;;;;;;;;;5048444;28;20873;-63
2023/01/18 00:53:23;;;;;;;10.50;7.73;;;;;;;;;;5048911;28;20336;-60
2023/01/18 00:55:49;;;;;;;12.70;8.60;;;;;;;;;;5047426;28;20284;-60
2023/01/18 00:58:15;;;;;;;14.80;8.77;;;;;;;;;;5048534;28;20334;-60
2023/01/18 01:00:41;;;;;;;14.37;7.73;;;;;;;;;;5048907;28;20287;-60
2023/01/18 01:03:08;;;;;;;15.43;8.13;;;;;;;;;;5048614;28;20856;-60
2023/01/18 01:08:20;;;;;;;13.30;8.50;;;;;;;;;;5048869;28;20852;-61
2023/01/18 01:10:47;;;;;;;14.27;8.30;;;;;;;;;;5049028;28;20460;-60
2023/01/18 01:26:59;;;;;;;14.57;9.83;;;;;;;;;;5048498;28;20639;-60
2023/01/18 01:29:25;;;;;;;15.87;10.20;;;;;;;;;;5048748;28;20650;-60
2023/01/18 01:31:51;;;;;;;15.33;9.53;;;;;;;;;;5065929;28;20311;-60
2023/01/18 01:34:17;;;;;;;17.30;10.53;;;;;;;;;;5068203;28;20283;-60
2023/01/18 01:36:43;;;;;;;18.60;10.23;;;;;;;;;;5055872;28;20314;-60
2023/01/18 01:39:09;;;;;;;17.27;10.23;;;;;;;;;;5048794;28;20792;-60
2023/01/18 01:41:36;;;;;;;17.20;9.60;;;;;;;;;;5048448;28;20387;-60
2023/01/18 01:44:03;;;;;;;18.90;10.30;;;;;;;;;;5048336;28;20650;-60
2023/01/18 01:46:32;;;;;;;16.30;9.53;;;;;;;;;;5048620;28;20291;-60
2023/01/18 01:49:22;;;;;;;16.53;9.83;;;;;;;;;;5048114;28;20823;-60
2023/01/18 01:51:51;;;;;;;14.93;8.83;;;;;;;;;;5048917;28;20327;-61
2023/01/18 01:54:26;;;;;;;21.13;10.23;;;;;;;;;;5053298;28;20310;-61
2023/01/18 01:56:55;;;;;;;20.27;10.33;;;;;;;;;;5052022;28;20280;-62
2023/01/18 01:59:21;;;;;;;15.50;9.57;;;;;;;;;;5052442;28;20353;-62
2023/01/18 02:01:48;;;;;;;16.77;10.20;;;;;;;;;;5051910;28;20334;-60
2023/01/18 02:04:14;;;;;;;18.77;10.63;;;;;;;;;;5071230;28;20765;-60
2023/01/18 02:06:40;;;;;;;16.13;9.90;;;;;;;;;;5069150;28;20705;-60
2023/01/18 02:09:12;;;;;;;15.23;10.33;;;;;;;;;;5072433;28;20278;-60
2023/01/18 02:11:39;;;;;;;18.37;11.03;;;;;;;;;;5072122;28;20336;-60
2023/01/18 02:14:07;;;;;;;17.13;9.77;;;;;;;;;;5072494;28;20287;-60
2023/01/18 02:16:53;;;;;;;22.03;9.70;;;;;;;;;;5056297;28;20299;-60
2023/01/18 02:19:38;;;;;;;17.00;10.23;;;;;;;;;;5051872;28;20291;-60
2023/01/18 02:22:23;;;;;;;17.30;10.30;;;;;;;;;;5052085;28;20295;-60
2023/01/18 02:24:55;;;;;;;16.03;9.83;;;;;;;;;;5051828;28;20690;-60
2023/01/18 02:27:22;;;;;;;26.70;11.70;;;;;;;;;;5057445;28;20299;-60
2023/01/18 02:30:07;;;;;;;20.93;9.70;;;;;;;;;;5054992;28;20307;-61
2023/01/18 02:32:39;;;;;;;14.50;8.67;;;;;;;;;;5050976;28;20720;-60
2023/01/18 02:35:15;;;;;;;16.10;10.17;;;;;;;;;;5051601;28;20284;-60
2023/01/18 02:37:54;;;;;;;16.83;10.27;;;;;;;;;;5051534;28;20284;-61
2023/01/18 02:40:39;;;;;;;20.23;10.27;;;;;;;;;;5051499;28;20762;-60
2023/01/18 02:48:38;;;;;;;15.90;10.03;;;;;;;;;;5050452;28;20387;-60
2023/01/18 02:51:04;;;;;;;17.37;10.70;;;;;;;;;;5051427;28;20824;-60
2023/01/18 02:53:31;;;;;;;15.47;9.67;;;;;;;;;;5051378;28;20665;-61
2023/01/18 02:56:04;;;;;;;16.80;9.57;;;;;;;;;;5051123;28;20279;-60
2023/01/18 02:58:30;;;;;;;;;;;;;;;;;;5068488;28;20299;-61
2023/01/18 03:01:04;;;;;;;18.00;10.03;;;;;;;;;;5069589;28;19927;-61
2023/01/18 03:03:30;;;;;;;19.43;10.00;;;;;;;;;;5069856;28;20183;-61
2023/01/18 03:05:59;;;;;;;15.53;9.97;;;;;;;;;;5071240;28;20343;-61
2023/01/18 03:08:37;;;;;;;17.87;10.63;;;;;;;;;;5070259;28;20394;-61
2023/01/18 03:11:16;;;;;;;18.03;10.60;;;;;;;;;;5070703;28;20812;-61
2023/01/18 03:14:01;;;;;;;17.73;10.60;;;;;;;;;;5050472;28;20333;-61
2023/01/18 03:16:38;;;;;;;15.17;9.63;;;;;;;;;;5050609;28;20295;-61
2023/01/18 03:21:53;;;;;;;18.50;9.67;;;;;;;;;;5070785;28;20279;-61
2023/01/18 03:24:20;;;;;;;13.83;9.50;;;;;;;;;;5062589;28;20353;-61
2023/01/18 03:26:48;;;;;;;17.40;10.50;;;;;;;;;;5050392;28;20774;-61
2023/01/18 03:34:51;;;;;;;16.43;9.63;;;;;;;;;;5050507;28;20657;-61
2023/01/18 03:37:23;;;;;;;15.10;9.50;;;;;;;;;;5048726;28;20355;-61
2023/01/18 03:39:54;;;;;;;17.03;10.10;;;;;;;;;;5049888;28;20311;-61
2023/01/18 03:42:23;;;;;;;15.53;9.27;;;;;;;;;;5050402;28;20284;-61
2023/01/18 03:44:55;;;;;;;20.20;11.10;;;;;;;;;;5050330;28;20821;-60
2023/01/18 03:47:22;;;;;;;19.73;9.67;;;;;;;;;;5050367;28;20298;-61
2023/01/18 03:49:48;;;;;;;16.03;9.73;;;;;;;;;;5066297;28;20373;-60
2023/01/18 03:52:16;;;;;;;17.67;11.07;;;;;;;;;;5069989;28;20401;-61
2023/01/18 03:54:49;;;;;;;17.00;9.53;;;;;;;;;;5069149;28;20287;-60
2023/01/18 03:57:18;;;;;;;18.00;10.52;;;;;;;;;;5069992;28;20649;-61
2023/01/18 03:59:45;;;;;;;20.77;10.00;;;;;;;;;;5057122;28;20048;-61
2023/01/18 04:02:12;;;;;;;20.53;10.27;;;;;;;;;;5050071;28;20287;-60
2023/01/18 04:04:38;;;;;;;19.90;11.30;;;;;;;;;;5049841;28;20290;-61
2023/01/18 04:07:04;;;;;;;19.97;10.73;;;;;;;;;;5050137;28;20297;-60
2023/01/18 04:09:30;;;;;;;21.10;11.47;;;;;;;;;;5049920;28;20291;-61
2023/01/18 04:11:56;;;;;;;23.03;11.57;;;;;;;;;;5049270;28;20362;-61
2023/01/18 04:14:22;;;;;;;20.43;11.27;;;;;;;;;;5049356;28;20295;-60
2023/01/18 04:16:49;;;;;;;24.40;12.07;;;;;;;;;;5049773;28;20713;-61
2023/01/18 04:19:15;;;;;;;18.77;10.63;;;;;;;;;;5049147;28;20295;-65
2023/01/18 04:21:41;;;;;;;17.50;10.67;;;;;;;;;;5052382;28;20330;-60
2023/01/18 04:24:07;;;;;;;19.17;10.50;;;;;;;;;;5069418;28;20792;-62
2023/01/18 04:26:33;;;;;;;18.27;9.83;;;;;;;;;;5069560;28;20282;-61
2023/01/18 04:28:59;;;;;;;22.73;11.53;;;;;;;;;;5069034;28;20286;-61
2023/01/18 04:31:25;;;;;;;23.17;12.90;;;;;;;;;;5069088;28;20310;-61
2023/01/18 04:33:52;;;;;;;17.93;10.10;;;;;;;;;;5058377;28;20287;-61
2023/01/18 04:36:19;;;;;;;17.33;11.23;;;;;;;;;;5049213;28;20286;-61
2023/01/18 04:38:45;;;;;;;16.53;10.50;;;;;;;;;;5048109;28;20366;-61
2023/01/18 04:41:11;;;;;;;17.30;10.47;;;;;;;;;;5049274;28;20311;-61
2023/01/18 04:43:37;;;;;;;17.90;11.17;;;;;;;;;;5049372;28;20287;-61
2023/01/18 04:46:03;;;;;;;21.07;11.33;;;;;;;;;;5049205;28;20294;-61
2023/01/18 04:48:29;;;;;;;20.60;11.23;;;;;;;;;;5048998;28;20646;-61
2023/01/18 04:50:55;;;;;;;19.90;11.30;;;;;;;;;;5049221;28;20303;-61
2023/01/18 04:53:22;;;;;;;19.97;10.73;;;;;;;;;;5049034;28;20847;-61
2023/01/18 04:55:49;;;;;;;16.90;10.57;;;;;;;;;;5048844;28;20374;-61
2023/01/18 04:58:15;;;;;;;16.13;10.27;;;;;;;;;;5067282;28;20311;-61
2023/01/18 05:00:41;;;;;;;20.07;10.87;;;;;;;;;;5068973;28;20291;-61
2023/01/18 05:03:08;;;;;;;19.10;11.10;;;;;;;;;;5060473;28;20793;-61
2023/01/18 05:05:34;;;;;;;22.70;11.10;;;;;;;;;;5048916;28;20402;-61
2023/01/18 05:08:00;;;;;;;19.63;11.00;;;;;;;;;;5048811;28;20280;-61
2023/01/18 05:10:26;;;;;;;18.83;10.33;;;;;;;;;;5048579;28;20290;-61
2023/01/18 05:12:52;;;;;;;20.40;11.47;;;;;;;;;;5047297;28;20299;-61
2023/01/18 05:15:18;;;;;;;21.10;10.30;;;;;;;;;;5048697;28;20284;-61
2023/01/18 05:17:44;;;;;;;18.90;10.23;;;;;;;;;;5047983;28;20284;-60
2023/01/18 05:20:11;;;;;;;31.80;12.30;;;;;;;;;;5046535;28;20329;-61
2023/01/18 05:22:37;;;;;;;19.47;10.37;;;;;;;;;;5048804;28;20653;-61
2023/01/18 05:25:04;;;;;;;16.50;9.70;;;;;;;;;;5047611;28;20283;-61
2023/01/18 05:27:30;;;;;;;31.60;13.03;;;;;;;;;;5048419;28;20300;-61
2023/01/18 05:29:56;;;;;;;20.77;10.90;;;;;;;;;;5047797;28;20283;-61
2023/01/18 05:32:23;;;;;;;15.47;10.03;;;;;;;;;;5048357;28;20311;-61
2023/01/18 05:34:49;;;;;;;17.47;11.33;;;;;;;;;;5048761;28;20287;-61
2023/01/18 05:37:15;;;;;;;20.50;10.33;;;;;;;;;;5047444;28;20287;-61
2023/01/18 05:39:41;;;;;;;19.60;11.13;;;;;;;;;;5064391;28;20303;-62
2023/01/18 05:42:07;;;;;;;19.13;10.03;;;;;;;;;;5066515;28;20314;-61
2023/01/18 05:44:34;;;;;;;18.83;10.73;;;;;;;;;;5067781;28;20286;-62
2023/01/18 05:47:00;;;;;;;19.13;10.70;;;;;;;;;;5065615;28;20303;-61
2023/01/18 05:49:28;;;;;;;18.03;10.83;;;;;;;;;;5066756;28;20290;-61
2023/01/18 05:51:54;;;;;;;21.87;9.93;;;;;;;;;;5067430;28;20314;-61
2023/01/18 05:54:20;;;;;;;20.87;10.77;;;;;;;;;;5068144;28;20294;-61
2023/01/18 05:56:46;;;;;;;18.17;11.40;;;;;;;;;;5066720;28;20348;-61
2023/01/18 05:59:14;;;;;;;23.07;11.83;;;;;;;;;;5066408;28;20290;-61
2023/01/18 06:01:40;;;;;;;31.00;12.30;;;;;;;;;;5064710;28;20843;-60
2023/01/18 06:04:06;;;;;;;19.10;11.47;;;;;;;;;;5066269;28;20283;-61
2023/01/18 06:06:33;;;;;;;23.53;12.17;;;;;;;;;;5065966;28;20638;-60
2023/01/18 06:09:00;;;;;;;21.10;11.87;;;;;;;;;;5065999;28;20336;-61
2023/01/18 06:11:26;;;;;;;20.23;11.43;;;;;;;;;;5058435;28;20405;-61
2023/01/18 06:13:52;;;;;;;19.93;11.60;;;;;;;;;;5047506;28;20283;-61
2023/01/18 06:16:18;;;;;;;20.00;11.73;;;;;;;;;;5047486;28;20299;-61
2023/01/18 06:18:44;;;;;;;22.90;11.70;;;;;;;;;;5047650;28;20295;-60
2023/01/18 06:21:10;;;;;;;18.20;11.03;;;;;;;;;;5048114;28;20310;-61
2023/01/18 06:23:37;;;;;;;23.37;13.00;;;;;;;;;;5047745;28;20345;-61
2023/01/18 06:26:03;;;;;;;22.30;12.87;;;;;;;;;;5055787;28;20287;-61
2023/01/18 06:28:29;;;;;;;24.53;12.60;;;;;;;;;;5061705;28;21132;-61
2023/01/18 06:30:55;;;;;;;19.30;11.47;;;;;;;;;;5059477;28;20360;-61
2023/01/18 06:33:22;;;;;;;23.20;11.60;;;;;;;;;;5047920;28;20773;-61
2023/01/18 06:35:48;;;;;;;30.57;12.93;;;;;;;;;;5056221;28;20289;-61
2023/01/18 06:38:14;;;;;;;22.53;12.67;;;;;;;;;;5071091;28;20290;-61
2023/01/18 06:40:41;;;;;;;25.07;12.57;;;;;;;;;;5071717;28;20630;-61
2023/01/18 06:43:09;;;;;;;22.37;11.93;;;;;;;;;;5058653;28;20303;-61
2023/01/18 06:45:35;;;;;;;19.97;11.10;;;;;;;;;;5070242;28;20290;-60
2023/01/18 06:48:01;;;;;;;22.67;11.80;;;;;;;;;;5070377;28;20283;-62
2023/01/18 06:50:27;;;;;;;21.27;12.37;;;;;;;;;;5069575;28;20386;-61
2023/01/18 06:52:54;;;;;;;20.57;11.27;;;;;;;;;;5070629;28;20769;-61
2023/01/18 06:55:21;;;;;;;18.90;11.80;;;;;;;;;;5065152;28;20411;-61
2023/01/18 06:57:47;;;;;;;19.77;11.23;;;;;;;;;;5050897;28;20291;-61
2023/01/18 07:00:15;;;;;;;20.90;13.63;;;;;;;;;;5050714;28;20276;-61
2023/01/18 07:02:41;;;;;;;22.63;12.67;;;;;;;;;;5048943;28;20296;-61
2023/01/18 07:05:07;;;;;;;31.33;13.20;;;;;;;;;;5052213;28;20295;-60
2023/01/18 07:07:33;;;;;;;20.87;11.63;;;;;;;;;;5051867;28;20299;-61
2023/01/18 07:09:59;;;;;;;18.47;11.93;;;;;;;;;;5050623;28;20369;-61
2023/01/18 07:12:26;;;;;;;20.63;11.70;;;;;;;;;;5050038;28;20310;-61
2023/01/18 07:14:52;;;;;;;18.77;11.13;;;;;;;;;;5048992;28;20299;-62
2023/01/18 07:17:18;;;;;;;25.93;12.50;;;;;;;;;;5050788;28;20287;-60
2023/01/18 07:19:44;;;;;;;23.37;12.10;;;;;;;;;;5054020;28;20291;-60
2023/01/18 07:22:10;;;;;;;22.23;11.90;;;;;;;;;;5070273;28;20774;-60
2023/01/18 07:24:36;;;;;;;18.40;11.93;;;;;;;;;;5071163;28;20302;-59
2023/01/18 07:27:02;;;;;;;21.30;12.93;;;;;;;;;;5070509;28;20290;-59
2023/01/18 07:29:28;;;;;;;21.60;11.97;;;;;;;;;;5057514;28;20300;-60
2023/01/18 07:31:55;;;;;;;27.60;13.87;;;;;;;;;;5066391;28;20310;-60
2023/01/18 07:34:21;;;;;;;27.97;13.93;;;;;;;;;;5055926;28;20292;-60
2023/01/18 07:36:47;;;;;;;22.03;12.87;;;;;;;;;;5050847;28;20284;-59
2023/01/18 07:39:13;;;;;;;21.63;11.93;;;;;;;;;;5051304;28;20332;-60
2023/01/18 07:41:40;;;;;;;26.73;12.43;;;;;;;;;;5050392;28;20665;-59
2023/01/18 07:44:09;;;;;;;22.87;12.43;;;;;;;;;;5059090;28;20788;-59
2023/01/18 07:46:35;;;;;;;25.43;12.23;;;;;;;;;;5054629;28;20801;-60
2023/01/18 07:49:04;;;;;;;23.10;12.37;;;;;;;;;;5049388;28;20346;-60
2023/01/18 07:51:30;;;;;;;23.77;13.53;;;;;;;;;;5050541;28;20304;-60
2023/01/18 07:53:57;;;;;;;26.97;13.03;;;;;;;;;;5049755;28;20279;-59
2023/01/18 07:56:24;;;;;;;22.40;11.63;;;;;;;;;;5049918;28;20279;-59
2023/01/18 07:58:51;;;;;;;21.17;11.63;;;;;;;;;;5049915;28;20295;-60
2023/01/18 08:01:18;;;;;;;22.17;12.03;;;;;;;;;;5049314;28;20427;-60
2023/01/18 08:03:48;;;;;;;21.77;11.03;;;;;;;;;;5050771;28;20323;-60
2023/01/18 08:06:18;;;;;;;20.40;11.87;;;;;;;;;;5050044;28;20300;-60
2023/01/18 08:08:44;;;;;;;22.10;11.30;;;;;;;;;;5049389;28;20307;-60
2023/01/18 08:11:11;;;;;;;22.20;12.60;;;;;;;;;;5049891;28;20347;-60
2023/01/18 08:13:37;;;;;;;21.40;11.57;;;;;;;;;;5049971;28;20294;-60
2023/01/18 08:16:05;;;;;;;18.60;10.23;;;;;;;;;;5050070;28;20297;-60
2023/01/18 08:18:31;;;;;;;19.33;11.23;;;;;;;;;;5048275;28;20307;-61
2023/01/18 08:20:57;;;;;;;19.40;10.83;;;;;;;;;;5049690;28;20330;-60
2023/01/18 08:23:24;;;;;;;19.73;11.90;;;;;;;;;;5055909;28;20295;-61
2023/01/18 08:25:50;;;;;;;24.23;12.27;;;;;;;;;;5069300;28;20287;-61
2023/01/18 08:28:17;;;;;;;17.57;10.43;;;;;;;;;;5069150;28;20910;-60
2023/01/18 08:30:45;;;;;;;18.80;11.47;;;;;;;;;;5069249;28;20283;-60
2023/01/18 08:33:11;;;;;;;18.87;11.53;;;;;;;;;;5059752;28;20643;-61
2023/01/18 08:35:41;;;;;;;18.90;11.60;;;;;;;;;;5050167;28;20299;-60
2023/01/18 08:38:08;;;;;;;18.77;11.23;;;;;;;;;;5049944;28;20367;-61
2023/01/18 08:40:34;;;;;;;22.43;11.97;;;;;;;;;;5069265;28;20291;-60
2023/01/18 08:43:01;;;;;;;24.57;12.70;;;;;;;;;;5049703;28;20322;-60
2023/01/18 08:45:28;;;;;;;19.50;12.50;;;;;;;;;;5048878;28;20819;-60
2023/01/18 08:48:01;;;;;;;20.57;11.80;;;;;;;;;;5048957;28;20298;-61
2023/01/18 08:50:28;;;;;;;26.10;13.93;;;;;;;;;;5049335;28;20330;-61
2023/01/18 08:52:54;;;;;;;17.20;12.10;;;;;;;;;;5048692;28;20166;-61
2023/01/18 08:55:21;;;;;;;22.63;12.00;;;;;;;;;;5048998;28;20283;-61
2023/01/18 08:57:47;;;;;;;18.53;11.47;;;;;;;;;;5067424;28;20295;-60
2023/01/18 09:00:13;;;;;;;22.30;12.00;;;;;;;;;;5065386;28;20367;-61
2023/01/18 09:02:40;;;;;;;20.03;12.13;;;;;;;;;;5048914;28;20290;-61
2023/01/18 09:05:06;;;;;;;21.70;12.87;;;;;;;;;;5048992;28;20379;-61
2023/01/18 09:07:32;;;;;;;20.17;12.63;;;;;;;;;;5047131;28;20323;-61
2023/01/18 09:09:58;;;;;;;21.43;13.03;;;;;;;;;;5051704;28;20797;-61
2023/01/18 09:12:24;;;;;;;20.17;12.03;;;;;;;;;;5048968;28;20732;-60
2023/01/18 09:14:50;;;;;;;20.67;11.93;;;;;;;;;;5048290;28;20305;-61
2023/01/18 09:17:18;;;;;;;26.47;12.13;;;;;;;;;;5048955;28;20288;-61
2023/01/18 09:19:44;;;;;;;19.13;11.60;;;;;;;;;;5051787;28;20306;-59
2023/01/18 09:22:11;;;;;;;16.33;10.80;;;;;;;;;;5069006;28;20298;-59
2023/01/18 09:24:37;;;;;;;18.47;11.30;;;;;;;;;;5058335;28;20292;-59
2023/01/18 09:27:04;;;;;;;19.03;11.67;;;;;;;;;;5053872;28;20302;-59
2023/01/18 09:29:30;;;;;;;17.50;12.10;;;;;;;;;;5068657;28;20293;-59
2023/01/18 09:31:56;;;;;;;18.10;10.77;;;;;;;;;;5068078;28;20677;-59
2023/01/18 09:34:22;;;;;;;15.90;10.40;;;;;;;;;;5049267;28;20295;-59
2023/01/18 09:36:50;;;;;;;18.77;10.83;;;;;;;;;;5048197;28;21002;-59
2023/01/18 09:39:16;;;;;;;14.73;9.80;;;;;;;;;;5048207;28;20492;-59
2023/01/18 09:41:43;;;;;;;16.43;9.43;;;;;;;;;;5048501;28;20280;-60
2023/01/18 09:44:09;;;;;;;17.47;10.30;;;;;;;;;;5048168;28;20318;-59
2023/01/18 09:46:37;;;;;;;18.13;9.93;;;;;;;;;;5048268;28;20322;-59
2023/01/18 09:49:05;;;;;;;21.97;10.70;;;;;;;;;;5047456;28;20284;-59
2023/01/18 09:51:33;;;;;;;16.90;9.13;;;;;;;;;;5068345;28;20572;-59
2023/01/18 09:54:06;;;;;;;14.30;8.60;;;;;;;;;;5068565;28;20291;-59
2023/01/18 09:56:46;;;;;;;14.60;9.10;;;;;;;;;;5068197;28;20313;-59
2023/01/18 09:59:19;;;;;;;18.07;9.53;;;;;;;;;;5068349;28;20052;-59
2023/01/18 10:01:46;;;;;;;14.35;8.63;;;;;;;;;;5067111;28;20298;-59
2023/01/18 10:04:12;;;;;;;13.43;7.30;;;;;;;;;;5053471;28;20153;-59
2023/01/18 10:06:51;;;;;;;12.93;7.40;;;2.90;99.90;;;;;;5048136;28;20359;-59
2023/01/18 10:09:39;;;;;;;9.57;5.67;;;2.90;92.30;;;;;;5065149;28;20045;-59
2023/01/18 10:12:20;;;;;;;11.70;5.90;;;3.50;1.00;;;;;;5070593;28;20397;-59
2023/01/18 10:14:58;;;;;;;9.77;6.03;;;4.20;23.20;;;;;;5065941;28;20302;-59
2023/01/18 10:17:39;;;;;;;21.27;6.33;;;4.60;1.00;;;;;;5055601;28;20315;-59
2023/01/18 10:20:39;;;;;;;12.40;6.07;;;5.20;1.00;;;;;;5051954;28;20362;-59
2023/01/18 10:23:08;;;;;;;11.97;5.70;;;5.50;1.00;;;;;;5052563;28;20805;-60
2023/01/18 10:25:45;;;;;;;10.80;5.23;;;5.80;1.00;;;;;;5051767;28;20275;-60
2023/01/18 10:28:24;;;;;;;9.47;4.30;;;6.10;1.00;;;;;;5056853;28;20302;-60
2023/01/18 10:31:14;;;;;;;9.30;5.57;;;6.60;1.00;;;;;;5063371;28;20310;-60
2023/01/18 10:33:42;;;;;;;8.23;4.30;;;6.90;1.00;;;;;;5071241;28;20060;-60
2023/01/18 10:36:40;;;;;;;8.10;5.03;;;7.30;1.00;;;;;;5070381;28;20052;-60
2023/01/18 10:39:44;;;;;;;9.07;4.87;;;7.50;1.00;;;;;;5062752;28;20415;-60
2023/01/18 10:42:19;;;;;;;10.10;4.88;;;7.40;1.00;;;;;;5046004;28;20049;-60
2023/01/18 10:44:44;;;;;;;6.60;4.03;;;7.70;1.00;;;;;;5051250;28;20487;-61
2023/01/18 10:47:10;;;;;;;11.47;4.87;;;7.40;1.00;;;;;;5064201;28;20052;-60
2023/01/18 10:49:41;;;;;;;7.47;4.30;;;7.50;1.00;;;;;;5071245;28;20473;-60
2023/01/18 10:52:30;;;;;;;9.23;4.57;;;7.70;1.00;;;;;;5071149;28;20499;-60
2023/01/18 10:54:58;;;;;;;6.50;3.90;;;7.80;1.00;;;;;;5057484;28;20041;-60
2023/01/18 10:57:52;;;;;;;8.13;4.70;;;8.10;1.00;;;;;;5051738;28;20507;-60
2023/01/18 11:00:51;;;;;;;8.70;4.88;;;8.30;1.00;;;;;;5044672;28;20578;-61
2023/01/18 11:03:17;;;;;;;7.30;4.93;;;8.70;24.00;;;;;;5051558;28;20052;-61
2023/01/18 11:05:44;;;;;;;9.83;5.30;;;8.60;1.00;;;;;;5050232;28;20033;-61
2023/01/18 11:08:23;;;;;;;5.93;3.63;;;8.60;1.00;;;;;;5051106;28;20316;-62
2023/01/18 11:11:13;;;;;;;8.37;4.80;;;9.00;1.00;;;;;;5049641;28;20044;-61
2023/01/18 11:13:43;;;;;;;10.57;4.83;;;8.80;99.90;;;;;;5050849;28;20033;-61
2023/01/18 11:16:20;;;;;;;9.00;4.33;;;9.00;1.00;;;;;;5050446;28;20402;-62
2023/01/18 11:18:55;;;;;;;7.60;4.53;;;9.20;41.40;;;;;;5050331;28;20041;-62
2023/01/18 11:21:22;;;;;;;8.90;4.27;;;9.20;1.00;;;;;;5049592;28;20049;-62
2023/01/18 11:23:50;;;;;;;7.13;4.80;;;9.40;1.00;;;;;;5049888;28;20415;-63
2023/01/18 11:26:19;;;;;;;7.87;4.73;;;9.50;20.10;;;;;;5051161;28;20059;-63
2023/01/18 11:29:01;;;;;;;7.53;5.07;;;9.50;15.10;;;;;;5050341;28;20060;-63
2023/01/18 11:31:44;;;;;;;7.60;4.80;;;9.20;1.00;;;;;;5065770;28;20083;-62
2023/01/18 11:34:21;;;;;;;11.13;5.73;;;9.20;1.00;;;;;;5062602;28;20060;-63
2023/01/18 11:36:47;;;;;;;9.10;5.13;;;9.40;1.00;;;;;;5050417;28;20052;-62
2023/01/18 11:39:25;;;;;;;7.77;4.87;;;9.20;1.00;;;;;;5067790;28;20044;-63
2023/01/18 11:42:10;;;;;;;6.63;4.20;;;9.10;1.00;;;;;;5055765;28;20091;-63
2023/01/18 11:44:42;;;;;;;10.73;4.50;;;9.30;1.00;;;;;;5058607;28;20048;-63
2023/01/18 11:47:27;;;;;;;8.33;4.77;;;9.60;65.90;;;;;;5068939;28;20635;-62
2023/01/18 11:50:12;;;;;;;8.93;4.83;;;9.70;1.00;;;;;;5069773;28;20049;-63
2023/01/18 11:52:52;;;;;;;8.30;5.20;;;9.90;5.20;;;;;;5070382;28;20040;-62
2023/01/18 11:55:24;;;;;;;7.37;4.80;;;9.80;59.40;;;;;;5067619;28;20418;-63
2023/01/18 11:57:51;;;;;;;12.23;4.73;;;9.90;1.00;;;;;;5050013;28;20037;-63
2023/01/18 12:00:18;;;;;;;8.77;4.60;;;10.10;99.90;;;;;;5068117;28;20046;-63
2023/01/18 12:03:00;;;;;;;7.37;4.93;;;10.10;99.90;;;;;;5062205;28;20441;-63
2023/01/18 12:05:53;;;;;;;9.23;4.87;;;9.90;1.00;;;;;;5066205;28;20382;-63
2023/01/18 12:08:53;;;;;;;10.47;5.20;;;10.50;99.90;;;;;;5050705;28;20166;-62
2023/01/18 12:11:18;;;;;;;10.20;4.47;;;10.50;99.90;;;;;;5058266;28;20044;-63
2023/01/18 12:13:59;;;;;;;6.77;4.50;;;10.40;1.00;;;;;;5066575;28;20052;-63
2023/01/18 12:16:49;;;;;;;8.83;4.67;;;10.40;99.90;;;;;;5068347;28;20056;-63
2023/01/18 12:19:50;;;;;;;7.37;4.30;;;10.00;49.80;;;;;;5069086;28;20135;-62
2023/01/18 12:22:40;;;;;;;6.73;4.23;;;10.30;99.90;;;;;;5068914;28;20420;-62
2023/01/18 12:25:09;;;;;;;8.53;4.43;;;10.00;99.90;;;;;;5050628;28;20087;-63
2023/01/18 12:27:49;;;;;;;10.30;4.73;;;10.10;99.90;;;;;;5049060;28;20146;-61
2023/01/18 12:30:33;;;;;;;11.73;4.57;;;10.20;99.90;;;;;;5063398;28;20048;-62
2023/01/18 12:33:01;;;;;;;;;;;10.30;99.90;;;;;;5069135;28;20048;-62
2023/01/18 12:35:41;;;;;;;7.70;4.40;;;10.00;99.90;;;;;;5058523;28;19921;-63
2023/01/18 12:38:30;;;;;;;9.00;5.17;;;9.90;99.90;;;;;;5069570;28;20045;-63
2023/01/18 12:41:21;;;;;;;7.60;4.73;;;8.90;99.90;;;;;;5052159;28;20032;-63
2023/01/18 12:44:05;;;;;;;10.83;4.57;;;8.50;53.30;;;;;;5065099;28;20049;-63
2023/01/18 12:46:59;;;;;;;7.33;4.87;;;8.80;1.00;;;;;;5049271;28;20053;-62
2023/01/18 12:49:28;;;;;;;9.70;4.00;;;9.30;99.90;;;;;;5031235;28;20053;-62
2023/01/18 12:51:59;;;;;;;8.90;4.43;;;9.70;99.90;;;;;;5059568;28;21047;-62
2023/01/18 12:54:35;;;;;;;8.90;4.73;;;9.80;99.90;;;;;;5066896;28;20396;-62
2023/01/18 12:57:02;;;;;;;6.43;3.83;;;10.40;1.00;;;;;;5056490;28;20400;-62
2023/01/18 12:59:48;;;;;;;8.50;3.87;;;10.60;1.00;;;;;;5067185;28;20041;-62
2023/01/18 13:02:32;;;;;;;9.73;4.60;;;10.50;99.90;;;;;;5062142;28;20048;-62
2023/01/18 13:05:34;;;;;;;7.97;3.70;;;10.30;99.90;;;;;;5067634;28;20139;-62
2023/01/18 13:08:05;;;;;;;6.00;3.60;;;10.60;99.90;;;;;;5056934;28;20110;-62
2023/01/18 13:10:33;;;;;;;8.27;4.23;;;10.30;99.90;;;;;;5068260;28;20076;-62
2023/01/18 13:13:02;;;;;;;7.03;4.10;;;10.30;99.90;;;;;;5063602;28;20053;-62
2023/01/18 13:15:34;;;;;;;10.23;3.37;;;10.50;99.90;;;;;;5067823;28;20495;-62
2023/01/18 13:18:20;;;;;;;7.97;4.27;;;10.40;1.00;;;;;;5066350;28;20131;-62
2023/01/18 13:21:04;;;;;;;8.90;4.00;;;10.50;99.90;;;;;;5057114;28;20048;-62
2023/01/18 13:23:36;;;;;;;8.60;3.87;;;10.50;99.90;;;;;;5060133;28;20052;-62
2023/01/18 13:26:24;;;;;;;11.93;4.30;;;11.20;99.90;;;;;;5063296;28;20064;-62
2023/01/18 13:29:15;;;;;;;8.63;3.87;;;10.60;99.90;;;;;;5054978;28;20120;-62
2023/01/18 13:31:42;;;;;;;6.40;4.17;;;11.30;1.00;;;;;;5059204;28;20049;-62
2023/01/18 13:34:36;;;;;;;14.83;4.23;;;10.60;99.90;;;;;;5067313;28;20049;-61
2023/01/18 13:37:05;;;;;;;6.55;3.47;;;9.20;99.90;;;;;;5065891;28;20490;-62
2023/01/18 13:39:32;;;;;;;11.90;4.80;;;8.20;1.00;;;;;;5048094;28;20100;-62
2023/01/18 13:42:04;;;;;;;11.07;4.60;;;7.30;99.90;;;;;;5067527;28;20552;-61
2023/01/18 13:44:39;;;;;;;8.03;4.63;;;6.60;99.90;;;;;;5065784;28;20418;-62
2023/01/18 13:47:44;;;;;;;7.30;3.70;;;6.50;91.40;;;;;;5069492;28;20130;-61
2023/01/18 13:50:28;;;;;;;7.37;4.13;;;6.10;99.90;;;;;;5069819;28;20067;-61
2023/01/18 13:53:12;;;;;;;10.37;4.13;;;5.90;99.90;;;;;;5071199;28;20048;-61
2023/01/18 13:55:40;;;;;;;8.15;3.97;;;5.80;1.00;;;;;;5054318;28;20086;-61
2023/01/18 13:58:27;;;;;;;7.53;3.57;;;5.70;99.90;;;;;;5071503;28;20139;-61
2023/01/18 14:00:57;;;;;;;9.43;3.97;;;5.60;1.00;;;;;;5068545;28;20530;-61
2023/01/18 14:03:32;;;;;;;6.97;3.60;;;5.50;1.00;;;;;;5065791;28;20091;-62
2023/01/18 14:06:09;;;;;;;8.67;5.23;;;5.40;99.90;;;;;;5069787;28;20058;-61
2023/01/18 14:08:38;;;;;;;9.47;4.00;;;5.40;1.00;;;;;;5070744;28;20082;-61
2023/01/18 14:11:04;;;;;;;7.57;4.43;;;5.40;1.00;;;;;;5071479;28;20029;-61
2023/01/18 14:13:44;;;;;;;8.00;3.57;;;5.30;1.00;;;;;;5070362;28;20105;-61
2023/01/18 14:16:21;;;;;;;8.63;4.73;;;5.30;1.00;;;;;;5068156;28;20041;-61
2023/01/18 14:18:53;;;;;;;8.27;4.23;;;5.20;99.90;;;;;;5070706;28;20296;-61
2023/01/18 14:21:44;;;;;;;11.47;4.60;;;5.10;1.00;;;;;;5067877;28;20151;-61
2023/01/18 14:24:35;;;;;;;11.77;4.70;;;5.10;1.00;;;;;;5069794;28;20411;-61
2023/01/18 14:27:03;;;;;;;7.77;4.40;;;5.00;1.00;;;;;;5050868;28;20045;-61
2023/01/18 14:29:49;;;;;;;10.63;4.93;;;;;;;;;;5061959;28;20045;-60
2023/01/18 14:32:17;;;;;;;8.93;4.67;;;;;;;;;;5067006;28;20040;-61
2023/01/18 14:34:43;;;;;;;14.90;5.70;;;;;;;;;;5069521;28;20497;-61
2023/01/18 14:37:28;;;;;;;10.20;4.70;;;;;;;;;;5068631;28;20477;-61
2023/01/18 14:40:13;;;;;;;14.70;4.73;;;;;;;;;;5063857;28;20363;-61
2023/01/18 14:42:47;;;;;;;10.03;5.17;;;;;;;;;;5070976;28;20052;-62
2023/01/18 14:45:25;;;;;;;14.57;5.40;;;;;;;;;;5065757;28;20037;-62
2023/01/18 14:47:52;;;;;;;9.33;4.70;;;;;;;;;;5066444;28;20127;-62
2023/01/18 14:50:19;;;;;;;8.60;4.97;;;;;;;;;;5068897;28;20044;-62